Ohyamamaru — JG5507 — position and weather

sailwx.info

Track history (hours):
 
Tides and Currents Weather Stations Pressure Air Temp Water Temp Dewpoint Dewpoint Depression Visibility Wind Speed Wind Dir Waves Ship Positions

Ohyamamaru

Last reported at 2015-Feb-01 02:22 UTC. Time now 2015-Feb-01 14:48 UTC.
Position N 35°38' E 139°46'.

Length 36 m; draft 4.4 m.

Type: Tug. MMSI: 431001114.

Date/timePositionNaut miles runAvg speedWind from/ knotsBaromVisibWave heightAir tempDewpointWater temp
2015-Feb-01 02:22N 35°38' E 139°46'0 0.5
2015-Feb-01 01:27N 35°37' E 139°46'1 0.0
2015-Jan-31 10:28N 35°38' E 139°46'5 4.3
2015-Jan-31 09:14N 35°34' E 139°50'4 6.3
2015-Jan-31 08:32N 35°37' E 139°46'1 1.3
2015-Jan-31 07:28N 35°38' E 139°46'0 0.0
2015-Jan-31 05:32N 35°38' E 139°46'0 0.0
2015-Jan-31 04:12N 35°38' E 139°46'0 0.0
2015-Jan-31 03:21N 35°38' E 139°46'0 0.0
2015-Jan-31 02:23N 35°38' E 139°46'0 0.0
2015-Jan-31 01:29N 35°38' E 139°46'0 0.0
2015-Jan-31 00:23N 35°38' E 139°46'0 0.0
2015-Jan-30 23:28N 35°38' E 139°46'1 0.5
2015-Jan-30 22:33N 35°38' E 139°46'5 4.8
2015-Jan-30 21:33N 35°34' E 139°49'4 4.1
2015-Jan-30 20:33N 35°37' E 139°46'1 1.3
2015-Jan-30 19:31N 35°38' E 139°46'0 0.0
2015-Jan-30 18:33N 35°38' E 139°46'0 0.0
2015-Jan-30 17:33N 35°38' E 139°46'0 0.0
2015-Jan-30 16:33N 35°38' E 139°46'0 0.0
2015-Jan-30 15:32N 35°38' E 139°46'0 0.0
2015-Jan-30 14:33N 35°38' E 139°46'0 0.0
2015-Jan-30 13:32N 35°38' E 139°46'0 0.0
2015-Jan-30 12:33N 35°38' E 139°46'0 0.0
2015-Jan-30 11:26N 35°38' E 139°46'0 0.0
2015-Jan-30 10:31N 35°38' E 139°46'0 0.0
2015-Jan-30 09:33N 35°38' E 139°46'0 0.0
2015-Jan-30 08:33N 35°38' E 139°46'0 0.0
2015-Jan-30 07:28N 35°38' E 139°46'0 0.0
2015-Jan-30 06:30N 35°38' E 139°46'0 0.0
2015-Jan-30 05:31N 35°38' E 139°46'0 0.0
2015-Jan-30 04:33N 35°38' E 139°46'0 0.0
2015-Jan-30 03:13N 35°38' E 139°46'0 0.0
2015-Jan-30 02:30N 35°38' E 139°46'0 0.0
2015-Jan-30 01:30N 35°38' E 139°46'0 0.0
2015-Jan-30 00:32N 35°38' E 139°46'1 1.4
2015-Jan-29 23:30N 35°37' E 139°46'1 1.2
2015-Jan-29 22:32N 35°38' E 139°46'0 0.2
2015-Jan-29 21:28N 35°38' E 139°46'0 0.0
2015-Jan-29 20:32N 35°38' E 139°46'0 0.0
2015-Jan-29 19:32N 35°38' E 139°46'0 0.0
2015-Jan-29 18:33N 35°38' E 139°46'0 0.0
2015-Jan-29 16:18N 35°38' E 139°46'0 0.0
2015-Jan-29 15:33N 35°38' E 139°46'0 0.0
2015-Jan-29 14:33N 35°38' E 139°46'0 0.0
2015-Jan-29 13:31N 35°38' E 139°46'0 0.0
2015-Jan-29 11:10N 35°38' E 139°46'0 0.0
2015-Jan-29 10:29N 35°38' E 139°46'0 0.0
2015-Jan-29 09:33N 35°38' E 139°46'1 1.2
2015-Jan-29 08:31N 35°37' E 139°46'1 0.3
2015-Jan-29 04:24N 35°38' E 139°45'0 0.0
2015-Jan-29 00:17N 35°38' E 139°45'2 2.7
2015-Jan-28 23:33N 35°37' E 139°47'1 1.1
2015-Jan-28 22:33N 35°35' E 139°47'0 0.0
2015-Jan-28 21:32N 35°35' E 139°47'0 0.0
2015-Jan-28 20:33N 35°35' E 139°47'3 2.9
2015-Jan-28 19:31N 35°38' E 139°45'0 0.0
2015-Jan-28 14:08N 35°38' E 139°45'0 0.0
2015-Jan-28 13:32N 35°38' E 139°45'0 0.0
2015-Jan-28 12:32N 35°38' E 139°45'0 0.0
2015-Jan-28 11:30N 35°38' E 139°45'0 0.0
2015-Jan-28 10:27N 35°38' E 139°45'4 0.8
2015-Jan-28 05:24N 35°34' E 139°48'3 3.6
2015-Jan-28 04:33N 35°37' E 139°46'1 0.6
2015-Jan-28 02:27N 35°38' E 139°45'0 0.0
2015-Jan-28 01:14N 35°38' E 139°45'0 0.0
2015-Jan-28 00:17N 35°38' E 139°45'0 0.0
2015-Jan-27 21:25N 35°38' E 139°45'0 0.0
2015-Jan-27 16:33N 35°38' E 139°45'0 0.0
2015-Jan-27 15:28N 35°38' E 139°45'0 0.0
2015-Jan-27 14:30N 35°38' E 139°45'2 0.4
2015-Jan-27 10:16N 35°37' E 139°47'3 4.0
2015-Jan-27 09:30N 35°34' E 139°49'2 2.1
2015-Jan-27 08:26N 35°35' E 139°47'1 1.5
2015-Jan-27 07:31N 35°37' E 139°46'2 0.1
2015-Jan-26 15:10N 35°38' E 139°45'0 0.0
2015-Jan-26 09:10N 35°38' E 139°45'0 0.0
2015-Jan-25 11:30N 35°38' E 139°45'0 0.0
2015-Jan-25 10:15N 35°38' E 139°45'0 0.0
2015-Jan-25 03:16N 35°38' E 139°45'0 0.0
2015-Jan-24 19:11N 35°38' E 139°46'2 2.7
2015-Jan-24 18:29N 35°36' E 139°46'0 0.4
2015-Jan-24 17:25N 35°37' E 139°46'1 0.2
2015-Jan-24 10:21N 35°38' E 139°46'2 2.7
2015-Jan-24 09:28N 35°36' E 139°47'2 2.5
2015-Jan-24 08:31N 35°34' E 139°49'4 3.3
2015-Jan-24 07:15N 35°37' E 139°46'1 0.9
2015-Jan-24 06:14N 35°38' E 139°46'0 0.0
2015-Jan-24 04:16N 35°38' E 139°46'0 0.0
2015-Jan-24 03:17N 35°38' E 139°46'0 0.0
2015-Jan-24 02:31N 35°38' E 139°46'0 0.0
2015-Jan-24 01:26N 35°38' E 139°46'0 0.0
2015-Jan-24 00:28N 35°38' E 139°46'2 0.8
2015-Jan-23 22:30N 35°37' E 139°46'4 4.0
2015-Jan-23 21:32N 35°34' E 139°49'4 3.7
2015-Jan-23 20:33N 35°37' E 139°46'2 1.6
2015-Jan-23 19:28N 35°38' E 139°46'0 0.0
2015-Jan-23 14:07N 35°38' E 139°46'0 0.0
2015-Jan-23 13:06N 35°38' E 139°46'0 0.0
2015-Jan-23 12:32N 35°38' E 139°46'0 0.0
2015-Jan-23 11:33N 35°38' E 139°46'0 0.0
2015-Jan-23 10:33N 35°38' E 139°46'0 0.0
2015-Jan-23 09:26N 35°38' E 139°46'0 0.0
2015-Jan-23 08:32N 35°38' E 139°46'0 0.0
2015-Jan-23 07:33N 35°38' E 139°46'0 0.0
2015-Jan-23 06:32N 35°38' E 139°46'0 0.0
2015-Jan-23 05:30N 35°38' E 139°46'0 0.0
2015-Jan-23 03:24N 35°38' E 139°46'4 4.3
2015-Jan-23 02:33N 35°35' E 139°48'3 3.4
2015-Jan-23 01:31N 35°38' E 139°46'0 0.2
2015-Jan-23 00:33N 35°38' E 139°46'0 0.0
2015-Jan-22 23:33N 35°38' E 139°46'0 0.0
2015-Jan-22 22:16N 35°38' E 139°46'0 0.0
2015-Jan-22 20:28N 35°38' E 139°46'0 0.0
2015-Jan-22 19:33N 35°38' E 139°46'0 0.0
2015-Jan-22 18:27N 35°38' E 139°46'0 0.0
2015-Jan-22 14:18N 35°38' E 139°46'1 0.1
2015-Jan-22 10:17N 35°38' E 139°46'1 1.1
2015-Jan-22 09:33N 35°37' E 139°46'0 0.4
2015-Jan-22 08:32N 35°37' E 139°46'0 0.2
2015-Jan-22 07:17N 35°37' E 139°46'  
Track history (hours):
 
Tides and Currents Weather Stations Pressure Air Temp Water Temp Dewpoint Dewpoint Depression Visibility Wind Speed Wind Dir Waves Ship Positions

Ohyamamaru

Last reported at 2015-Feb-01 02:22 UTC. Time now 2015-Feb-01 14:48 UTC.
Position N 35°38' E 139°46'.

Length 36 m; draft 4.4 m.

Type: Tug. MMSI: 431001114.

Date/timePositionNaut miles runAvg speedWind from/ knotsBaromVisibWave heightAir tempDewpointWater temp
2015-Feb-01 02:22N 35°38' E 139°46'0 0.5
2015-Feb-01 01:27N 35°37' E 139°46'1 0.0
2015-Jan-31 10:28N 35°38' E 139°46'5 4.3
2015-Jan-31 09:14N 35°34' E 139°50'4 6.3
2015-Jan-31 08:32N 35°37' E 139°46'1 1.3
2015-Jan-31 07:28N 35°38' E 139°46'0 0.0
2015-Jan-31 05:32N 35°38' E 139°46'0 0.0
2015-Jan-31 04:12N 35°38' E 139°46'0 0.0
2015-Jan-31 03:21N 35°38' E 139°46'0 0.0
2015-Jan-31 02:23N 35°38' E 139°46'0 0.0
2015-Jan-31 01:29N 35°38' E 139°46'0 0.0
2015-Jan-31 00:23N 35°38' E 139°46'0 0.0
2015-Jan-30 23:28N 35°38' E 139°46'1 0.5
2015-Jan-30 22:33N 35°38' E 139°46'5 4.8
2015-Jan-30 21:33N 35°34' E 139°49'4 4.1
2015-Jan-30 20:33N 35°37' E 139°46'1 1.3
2015-Jan-30 19:31N 35°38' E 139°46'0 0.0
2015-Jan-30 18:33N 35°38' E 139°46'0 0.0
2015-Jan-30 17:33N 35°38' E 139°46'0 0.0
2015-Jan-30 16:33N 35°38' E 139°46'0 0.0
2015-Jan-30 15:32N 35°38' E 139°46'0 0.0
2015-Jan-30 14:33N 35°38' E 139°46'0 0.0
2015-Jan-30 13:32N 35°38' E 139°46'0 0.0
2015-Jan-30 12:33N 35°38' E 139°46'0 0.0
2015-Jan-30 11:26N 35°38' E 139°46'0 0.0
2015-Jan-30 10:31N 35°38' E 139°46'0 0.0
2015-Jan-30 09:33N 35°38' E 139°46'0 0.0
2015-Jan-30 08:33N 35°38' E 139°46'0 0.0
2015-Jan-30 07:28N 35°38' E 139°46'0 0.0
2015-Jan-30 06:30N 35°38' E 139°46'0 0.0
2015-Jan-30 05:31N 35°38' E 139°46'0 0.0
2015-Jan-30 04:33N 35°38' E 139°46'0 0.0
2015-Jan-30 03:13N 35°38' E 139°46'0 0.0
2015-Jan-30 02:30N 35°38' E 139°46'0 0.0
2015-Jan-30 01:30N 35°38' E 139°46'0 0.0
2015-Jan-30 00:32N 35°38' E 139°46'1 1.4
2015-Jan-29 23:30N 35°37' E 139°46'1 1.2
2015-Jan-29 22:32N 35°38' E 139°46'0 0.2
2015-Jan-29 21:28N 35°38' E 139°46'0 0.0
2015-Jan-29 20:32N 35°38' E 139°46'0 0.0
2015-Jan-29 19:32N 35°38' E 139°46'0 0.0
2015-Jan-29 18:33N 35°38' E 139°46'0 0.0
2015-Jan-29 16:18N 35°38' E 139°46'0 0.0
2015-Jan-29 15:33N 35°38' E 139°46'0 0.0
2015-Jan-29 14:33N 35°38' E 139°46'0 0.0
2015-Jan-29 13:31N 35°38' E 139°46'0 0.0
2015-Jan-29 11:10N 35°38' E 139°46'0 0.0
2015-Jan-29 10:29N 35°38' E 139°46'0 0.0
2015-Jan-29 09:33N 35°38' E 139°46'1 1.2
2015-Jan-29 08:31N 35°37' E 139°46'1 0.3
2015-Jan-29 04:24N 35°38' E 139°45'0 0.0
2015-Jan-29 00:17N 35°38' E 139°45'2 2.7
2015-Jan-28 23:33N 35°37' E 139°47'1 1.1
2015-Jan-28 22:33N 35°35' E 139°47'0 0.0
2015-Jan-28 21:32N 35°35' E 139°47'0 0.0
2015-Jan-28 20:33N 35°35' E 139°47'3 2.9
2015-Jan-28 19:31N 35°38' E 139°45'0 0.0
2015-Jan-28 14:08N 35°38' E 139°45'0 0.0
2015-Jan-28 13:32N 35°38' E 139°45'0 0.0
2015-Jan-28 12:32N 35°38' E 139°45'0 0.0
2015-Jan-28 11:30N 35°38' E 139°45'0 0.0
2015-Jan-28 10:27N 35°38' E 139°45'4 0.8
2015-Jan-28 05:24N 35°34' E 139°48'3 3.6
2015-Jan-28 04:33N 35°37' E 139°46'1 0.6
2015-Jan-28 02:27N 35°38' E 139°45'0 0.0
2015-Jan-28 01:14N 35°38' E 139°45'0 0.0
2015-Jan-28 00:17N 35°38' E 139°45'0 0.0
2015-Jan-27 21:25N 35°38' E 139°45'0 0.0
2015-Jan-27 16:33N 35°38' E 139°45'0 0.0
2015-Jan-27 15:28N 35°38' E 139°45'0 0.0
2015-Jan-27 14:30N 35°38' E 139°45'2 0.4
2015-Jan-27 10:16N 35°37' E 139°47'3 4.0
2015-Jan-27 09:30N 35°34' E 139°49'2 2.1
2015-Jan-27 08:26N 35°35' E 139°47'1 1.5
2015-Jan-27 07:31N 35°37' E 139°46'2 0.1
2015-Jan-26 15:10N 35°38' E 139°45'0 0.0
2015-Jan-26 09:10N 35°38' E 139°45'0 0.0
2015-Jan-25 11:30N 35°38' E 139°45'0 0.0
2015-Jan-25 10:15N 35°38' E 139°45'0 0.0
2015-Jan-25 03:16N 35°38' E 139°45'0 0.0
2015-Jan-24 19:11N 35°38' E 139°46'2 2.7
2015-Jan-24 18:29N 35°36' E 139°46'0 0.4
2015-Jan-24 17:25N 35°37' E 139°46'1 0.2
2015-Jan-24 10:21N 35°38' E 139°46'2 2.7
2015-Jan-24 09:28N 35°36' E 139°47'2 2.5
2015-Jan-24 08:31N 35°34' E 139°49'4 3.3
2015-Jan-24 07:15N 35°37' E 139°46'1 0.9
2015-Jan-24 06:14N 35°38' E 139°46'0 0.0
2015-Jan-24 04:16N 35°38' E 139°46'0 0.0
2015-Jan-24 03:17N 35°38' E 139°46'0 0.0
2015-Jan-24 02:31N 35°38' E 139°46'0 0.0
2015-Jan-24 01:26N 35°38' E 139°46'0 0.0
2015-Jan-24 00:28N 35°38' E 139°46'2 0.8
2015-Jan-23 22:30N 35°37' E 139°46'4 4.0
2015-Jan-23 21:32N 35°34' E 139°49'4 3.7
2015-Jan-23 20:33N 35°37' E 139°46'2 1.6
2015-Jan-23 19:28N 35°38' E 139°46'0 0.0
2015-Jan-23 14:07N 35°38' E 139°46'0 0.0
2015-Jan-23 13:06N 35°38' E 139°46'0 0.0
2015-Jan-23 12:32N 35°38' E 139°46'0 0.0
2015-Jan-23 11:33N 35°38' E 139°46'0 0.0
2015-Jan-23 10:33N 35°38' E 139°46'0 0.0
2015-Jan-23 09:26N 35°38' E 139°46'0 0.0
2015-Jan-23 08:32N 35°38' E 139°46'0 0.0
2015-Jan-23 07:33N 35°38' E 139°46'0 0.0
2015-Jan-23 06:32N 35°38' E 139°46'0 0.0
2015-Jan-23 05:30N 35°38' E 139°46'0 0.0
2015-Jan-23 03:24N 35°38' E 139°46'4 4.3
2015-Jan-23 02:33N 35°35' E 139°48'3 3.4
2015-Jan-23 01:31N 35°38' E 139°46'0 0.2
2015-Jan-23 00:33N 35°38' E 139°46'0 0.0
2015-Jan-22 23:33N 35°38' E 139°46'0 0.0
2015-Jan-22 22:16N 35°38' E 139°46'0 0.0
2015-Jan-22 20:28N 35°38' E 139°46'0 0.0
2015-Jan-22 19:33N 35°38' E 139°46'0 0.0
2015-Jan-22 18:27N 35°38' E 139°46'0 0.0
2015-Jan-22 14:18N 35°38' E 139°46'1 0.1
2015-Jan-22 10:17N 35°38' E 139°46'1 1.1
2015-Jan-22 09:33N 35°37' E 139°46'0 0.4
2015-Jan-22 08:32N 35°37' E 139°46'0 0.2
2015-Jan-22 07:17N 35°37' E 139°46'  

Dump ship's entire track history